sensor_id;sensor_type;location;lat;lon;timestamp;pressure;altitude;pressure_sealevel;temperature;humidity
10992;BME280;5549;47.028;15.514;2023-04-20T00:02:10;96491.41;;;9.88;74.63
10992;BME280;5549;47.028;15.514;2023-04-20T00:04:40;96489.03;;;9.85;75.25
10992;BME280;5549;47.028;15.514;2023-04-20T00:07:11;96483.53;;;9.88;75.04
10992;BME280;5549;47.028;15.514;2023-04-20T00:09:41;96480.66;;;9.91;74.73
10992;BME280;5549;47.028;15.514;2023-04-20T00:12:10;96476.56;;;9.98;74.25
10992;BME280;5549;47.028;15.514;2023-04-20T00:14:38;96475.16;;;9.94;74.14
10992;BME280;5549;47.028;15.514;2023-04-20T00:17:05;96473.50;;;9.93;74.69
10992;BME280;5549;47.028;15.514;2023-04-20T00:19:35;96467.09;;;9.86;74.87
10992;BME280;5549;47.028;15.514;2023-04-20T00:22:03;96473.69;;;9.81;74.46
10992;BME280;5549;47.028;15.514;2023-04-20T00:24:32;96470.44;;;9.88;74.44
10992;BME280;5549;47.028;15.514;2023-04-20T00:27:01;96465.44;;;9.85;74.62
10992;BME280;5549;47.028;15.514;2023-04-20T00:29:29;96461.66;;;9.78;74.17
10992;BME280;5549;47.028;15.514;2023-04-20T00:31:59;96465.00;;;9.48;74.80
10992;BME280;5549;47.028;15.514;2023-04-20T00:34:26;96458.47;;;9.43;75.17
10992;BME280;5549;47.028;15.514;2023-04-20T00:36:56;96458.25;;;9.35;75.43
10992;BME280;5549;47.028;15.514;2023-04-20T00:39:26;96460.03;;;9.34;75.06
10992;BME280;5549;47.028;15.514;2023-04-20T00:42:04;96457.75;;;9.41;75.09
10992;BME280;5549;47.028;15.514;2023-04-20T00:44:32;96463.25;;;9.38;74.71
10992;BME280;5549;47.028;15.514;2023-04-20T00:47:02;96448.22;;;9.40;74.92
10992;BME280;5549;47.028;15.514;2023-04-20T00:49:30;96453.94;;;9.45;75.00
10992;BME280;5549;47.028;15.514;2023-04-20T00:52:00;96462.63;;;9.45;74.82
10992;BME280;5549;47.028;15.514;2023-04-20T00:54:31;96454.13;;;9.53;74.43
10992;BME280;5549;47.028;15.514;2023-04-20T00:56:59;96449.84;;;9.52;74.63
10992;BME280;5549;47.028;15.514;2023-04-20T00:59:32;96446.59;;;9.59;74.51
10992;BME280;5549;47.028;15.514;2023-04-20T01:01:59;96445.53;;;9.62;74.29
10992;BME280;5549;47.028;15.514;2023-04-20T01:04:29;96453.19;;;9.54;74.24
10992;BME280;5549;47.028;15.514;2023-04-20T01:06:59;96446.84;;;9.24;75.07
10992;BME280;5549;47.028;15.514;2023-04-20T01:09:26;96443.06;;;9.17;75.37
10992;BME280;5549;47.028;15.514;2023-04-20T01:11:54;96443.66;;;9.10;75.74
10992;BME280;5549;47.028;15.514;2023-04-20T01:14:21;96444.31;;;8.91;76.70
10992;BME280;5549;47.028;15.514;2023-04-20T01:16:51;96437.53;;;8.88;77.06
10992;BME280;5549;47.028;15.514;2023-04-20T01:19:21;96437.66;;;8.87;76.68
10992;BME280;5549;47.028;15.514;2023-04-20T01:21:51;96444.31;;;8.80;77.08
10992;BME280;5549;47.028;15.514;2023-04-20T01:24:21;96441.91;;;8.65;77.61
10992;BME280;5549;47.028;15.514;2023-04-20T01:26:48;96442.66;;;8.67;77.27
10992;BME280;5549;47.028;15.514;2023-04-20T01:29:16;96437.41;;;8.56;77.54
10992;BME280;5549;47.028;15.514;2023-04-20T01:31:46;96433.47;;;8.51;77.81
10992;BME280;5549;47.028;15.514;2023-04-20T01:34:14;96436.81;;;8.53;77.33
10992;BME280;5549;47.028;15.514;2023-04-20T01:36:45;96437.41;;;8.56;76.72
10992;BME280;5549;47.028;15.514;2023-04-20T01:39:15;96442.53;;;8.58;76.32
10992;BME280;5549;47.028;15.514;2023-04-20T01:41:52;96433.13;;;8.55;76.46
10992;BME280;5549;47.028;15.514;2023-04-20T01:44:22;96441.69;;;8.57;75.76
10992;BME280;5549;47.028;15.514;2023-04-20T01:46:49;96440.72;;;8.58;75.51
10992;BME280;5549;47.028;15.514;2023-04-20T01:49:17;96437.88;;;8.61;75.16
10992;BME280;5549;47.028;15.514;2023-04-20T01:51:47;96440.03;;;8.67;74.90
10992;BME280;5549;47.028;15.514;2023-04-20T01:54:17;96427.66;;;8.70;74.66
10992;BME280;5549;47.028;15.514;2023-04-20T01:56:45;96424.44;;;8.66;74.33
10992;BME280;5549;47.028;15.514;2023-04-20T01:59:16;96423.38;;;8.57;74.68
10992;BME280;5549;47.028;15.514;2023-04-20T02:01:44;96419.56;;;8.50;74.74
10992;BME280;5549;47.028;15.514;2023-04-20T02:04:14;96416.91;;;8.28;76.15
10992;BME280;5549;47.028;15.514;2023-04-20T02:06:42;96421.00;;;8.43;75.23
10992;BME280;5549;47.028;15.514;2023-04-20T02:09:10;96423.59;;;8.54;74.90
10992;BME280;5549;47.028;15.514;2023-04-20T02:11:37;96417.19;;;8.58;74.59
10992;BME280;5549;47.028;15.514;2023-04-20T02:14:05;96421.22;;;8.62;74.78
10992;BME280;5549;47.028;15.514;2023-04-20T02:16:36;96426.97;;;8.67;74.42
10992;BME280;5549;47.028;15.514;2023-04-20T02:19:07;96428.25;;;8.73;74.37
10992;BME280;5549;47.028;15.514;2023-04-20T02:21:35;96420.28;;;8.75;74.42
10992;BME280;5549;47.028;15.514;2023-04-20T02:24:02;96421.00;;;8.77;74.40
10992;BME280;5549;47.028;15.514;2023-04-20T02:26:33;96420.50;;;8.83;73.87
10992;BME280;5549;47.028;15.514;2023-04-20T02:29:01;96419.31;;;8.87;73.76
10992;BME280;5549;47.028;15.514;2023-04-20T02:31:30;96426.94;;;8.90;74.11
10992;BME280;5549;47.028;15.514;2023-04-20T02:34:00;96418.25;;;8.89;73.85
10992;BME280;5549;47.028;15.514;2023-04-20T02:36:27;96423.09;;;8.94;74.09
10992;BME280;5549;47.028;15.514;2023-04-20T02:38:55;96418.59;;;8.96;73.75
10992;BME280;5549;47.028;15.514;2023-04-20T02:41:22;96419.03;;;9.01;73.15
10992;BME280;5549;47.028;15.514;2023-04-20T02:43:50;96423.09;;;9.05;73.66
10992;BME280;5549;47.028;15.514;2023-04-20T02:46:19;96420.34;;;9.07;73.45
10992;BME280;5549;47.028;15.514;2023-04-20T02:48:49;96423.91;;;9.06;73.08
10992;BME280;5549;47.028;15.514;2023-04-20T02:51:18;96422.97;;;9.07;73.65
10992;BME280;5549;47.028;15.514;2023-04-20T02:53:46;96424.50;;;9.09;73.17
10992;BME280;5549;47.028;15.514;2023-04-20T02:56:13;96422.13;;;9.06;73.34
10992;BME280;5549;47.028;15.514;2023-04-20T02:58:43;96421.19;;;9.07;73.33
10992;BME280;5549;47.028;15.514;2023-04-20T03:01:15;96419.75;;;9.03;73.56
10992;BME280;5549;47.028;15.514;2023-04-20T03:03:43;96421.72;;;8.79;74.49
10992;BME280;5549;47.028;15.514;2023-04-20T03:06:10;96416.13;;;8.72;74.46
10992;BME280;5549;47.028;15.514;2023-04-20T03:08:39;96411.72;;;8.50;75.38
10992;BME280;5549;47.028;15.514;2023-04-20T03:11:07;96415.84;;;8.30;76.15
10992;BME280;5549;47.028;15.514;2023-04-20T03:13:37;96414.94;;;8.43;75.81
10992;BME280;5549;47.028;15.514;2023-04-20T03:16:11;96416.34;;;8.47;75.60
10992;BME280;5549;47.028;15.514;2023-04-20T03:18:39;96419.41;;;8.29;76.38
10992;BME280;5549;47.028;15.514;2023-04-20T03:21:07;96413.38;;;8.40;76.14
10992;BME280;5549;47.028;15.514;2023-04-20T03:23:35;96409.78;;;8.30;76.65
10992;BME280;5549;47.028;15.514;2023-04-20T03:26:04;96413.25;;;8.42;76.00
10992;BME280;5549;47.028;15.514;2023-04-20T03:28:40;96418.38;;;8.54;76.00
10992;BME280;5549;47.028;15.514;2023-04-20T03:31:10;96418.13;;;8.57;75.99
10992;BME280;5549;47.028;15.514;2023-04-20T03:33:37;96414.09;;;8.53;76.00
10992;BME280;5549;47.028;15.514;2023-04-20T03:36:06;96414.81;;;8.55;75.91
10992;BME280;5549;47.028;15.514;2023-04-20T03:38:34;96407.41;;;8.60;75.71
10992;BME280;5549;47.028;15.514;2023-04-20T03:41:04;96412.91;;;8.68;75.71
10992;BME280;5549;47.028;15.514;2023-04-20T03:43:33;96416.97;;;8.73;75.23
10992;BME280;5549;47.028;15.514;2023-04-20T03:46:01;96416.72;;;8.76;75.00
10992;BME280;5549;47.028;15.514;2023-04-20T03:48:31;96411.13;;;8.80;75.15
10992;BME280;5549;47.028;15.514;2023-04-20T03:51:00;96414.06;;;8.87;74.95
10992;BME280;5549;47.028;15.514;2023-04-20T03:53:28;96420.72;;;8.91;74.41
10992;BME280;5549;47.028;15.514;2023-04-20T03:55:56;96430.72;;;8.97;74.35
10992;BME280;5549;47.028;15.514;2023-04-20T03:58:24;96432.13;;;9.01;74.33
10992;BME280;5549;47.028;15.514;2023-04-20T04:01:01;96429.53;;;9.01;74.33
10992;BME280;5549;47.028;15.514;2023-04-20T04:03:32;96428.81;;;8.99;74.73
10992;BME280;5549;47.028;15.514;2023-04-20T04:06:03;96432.63;;;8.95;74.67
10992;BME280;5549;47.028;15.514;2023-04-20T04:08:33;96435.13;;;8.96;74.60
10992;BME280;5549;47.028;15.514;2023-04-20T04:11:01;96434.28;;;8.96;74.79
10992;BME280;5549;47.028;15.514;2023-04-20T04:13:33;96435.97;;;8.97;74.59
10992;BME280;5549;47.028;15.514;2023-04-20T04:16:03;96435.97;;;8.97;74.40
10992;BME280;5549;47.028;15.514;2023-04-20T04:18:33;96445.25;;;9.01;74.91
10992;BME280;5549;47.028;15.514;2023-04-20T04:21:01;96436.06;;;9.07;74.54
10992;BME280;5549;47.028;15.514;2023-04-20T04:23:29;96439.25;;;9.10;74.58
10992;BME280;5549;47.028;15.514;2023-04-20T04:25:57;96433.44;;;9.07;74.71
10992;BME280;5549;47.028;15.514;2023-04-20T04:28:24;96431.66;;;9.07;74.50
10992;BME280;5549;47.028;15.514;2023-04-20T04:30:56;96428.78;;;9.10;74.35
10992;BME280;5549;47.028;15.514;2023-04-20T04:33:26;96434.97;;;9.09;74.87
10992;BME280;5549;47.028;15.514;2023-04-20T04:35:56;96434.72;;;9.12;74.52
10992;BME280;5549;47.028;15.514;2023-04-20T04:38:26;96437.72;;;9.08;74.99
10992;BME280;5549;47.028;15.514;2023-04-20T04:40:53;96436.88;;;9.07;75.16
10992;BME280;5549;47.028;15.514;2023-04-20T04:43:21;96436.88;;;9.07;75.45
10992;BME280;5549;47.028;15.514;2023-04-20T04:45:49;96436.06;;;9.07;75.61
10992;BME280;5549;47.028;15.514;2023-04-20T04:48:18;96432.59;;;9.06;75.99
10992;BME280;5549;47.028;15.514;2023-04-20T04:50:46;96432.13;;;9.12;75.29
10992;BME280;5549;47.028;15.514;2023-04-20T04:53:13;96441.63;;;9.13;75.16
10992;BME280;5549;47.028;15.514;2023-04-20T04:55:43;96443.88;;;9.18;74.84
10992;BME280;5549;47.028;15.514;2023-04-20T04:58:14;96444.47;;;9.21;75.24
10992;BME280;5549;47.028;15.514;2023-04-20T05:00:42;96450.53;;;9.22;75.31
10992;BME280;5549;47.028;15.514;2023-04-20T05:03:10;96455.53;;;9.25;75.62
10992;BME280;5549;47.028;15.514;2023-04-20T05:05:39;96457.22;;;9.26;75.65
10992;BME280;5549;47.028;15.514;2023-04-20T05:08:06;96460.66;;;9.26;75.83
10992;BME280;5549;47.028;15.514;2023-04-20T05:10:34;96458.88;;;9.27;75.34
10992;BME280;5549;47.028;15.514;2023-04-20T05:13:01;96459.47;;;9.30;75.86
10992;BME280;5549;47.028;15.514;2023-04-20T05:15:30;96459.22;;;9.33;75.81
10992;BME280;5549;47.028;15.514;2023-04-20T05:18:01;96462.41;;;9.37;75.48
10992;BME280;5549;47.028;15.514;2023-04-20T05:20:28;96466.56;;;9.40;75.57
10992;BME280;5549;47.028;15.514;2023-04-20T05:23:00;96469.31;;;9.38;75.31
10992;BME280;5549;47.028;15.514;2023-04-20T05:25:30;96476.94;;;9.41;75.84
10992;BME280;5549;47.028;15.514;2023-04-20T05:27:59;96474.31;;;9.41;75.48
10992;BME280;5549;47.028;15.514;2023-04-20T05:30:29;96485.50;;;9.43;75.29
10992;BME280;5549;47.028;15.514;2023-04-20T05:32:56;96478.50;;;9.32;76.50
10992;BME280;5549;47.028;15.514;2023-04-20T05:35:24;96485.66;;;9.30;76.85
10992;BME280;5549;47.028;15.514;2023-04-20T05:37:54;96492.78;;;9.40;76.66
10992;BME280;5549;47.028;15.514;2023-04-20T05:40:25;96483.22;;;9.50;76.24
10992;BME280;5549;47.028;15.514;2023-04-20T05:42:55;96491.19;;;9.59;76.37
10992;BME280;5549;47.028;15.514;2023-04-20T05:45:22;96485.44;;;9.65;76.17
10992;BME280;5549;47.028;15.514;2023-04-20T05:47:55;96479.16;;;9.57;76.07
10992;BME280;5549;47.028;15.514;2023-04-20T05:50:26;96486.69;;;9.50;75.77
10992;BME280;5549;47.028;15.514;2023-04-20T05:52:56;96494.66;;;9.49;76.29
10992;BME280;5549;47.028;15.514;2023-04-20T05:55:25;96492.22;;;9.25;75.83
10992;BME280;5549;47.028;15.514;2023-04-20T05:57:52;96484.19;;;9.49;75.63
10992;BME280;5549;47.028;15.514;2023-04-20T06:00:22;96485.00;;;9.49;76.03
10992;BME280;5549;47.028;15.514;2023-04-20T06:02:50;96476.94;;;9.73;75.87
10992;BME280;5549;47.028;15.514;2023-04-20T06:05:17;96480.81;;;10.11;77.99
10992;BME280;5549;47.028;15.514;2023-04-20T06:07:46;96480.13;;;10.50;78.81
10992;BME280;5549;47.028;15.514;2023-04-20T06:10:13;96471.72;;;10.87;78.05
10992;BME280;5549;47.028;15.514;2023-04-20T06:12:45;96469.75;;;11.19;76.75
10992;BME280;5549;47.028;15.514;2023-04-20T06:15:15;96476.88;;;11.57;74.02
10992;BME280;5549;47.028;15.514;2023-04-20T06:17:43;96471.38;;;11.89;72.13
10992;BME280;5549;47.028;15.514;2023-04-20T06:20:11;96469.44;;;12.20;69.56
10992;BME280;5549;47.028;15.514;2023-04-20T06:22:41;96475.66;;;12.29;68.05
10992;BME280;5549;47.028;15.514;2023-04-20T06:25:12;96476.94;;;12.62;68.03
10992;BME280;5549;47.028;15.514;2023-04-20T06:27:40;96479.88;;;12.96;66.68
10992;BME280;5549;47.028;15.514;2023-04-20T06:30:11;96474.47;;;13.25;65.70
10992;BME280;5549;47.028;15.514;2023-04-20T06:32:39;96478.59;;;13.55;64.05
10992;BME280;5549;47.028;15.514;2023-04-20T06:35:07;96483.28;;;13.79;63.23
10992;BME280;5549;47.028;15.514;2023-04-20T06:37:35;96485.19;;;14.04;62.57
10992;BME280;5549;47.028;15.514;2023-04-20T06:40:04;96487.59;;;14.33;61.80
10992;BME280;5549;47.028;15.514;2023-04-20T06:42:33;96489.69;;;14.48;61.50
10992;BME280;5549;47.028;15.514;2023-04-20T06:45:05;96486.84;;;14.67;59.84
10992;BME280;5549;47.028;15.514;2023-04-20T06:47:34;96476.63;;;14.72;59.54
10992;BME280;5549;47.028;15.514;2023-04-20T06:50:04;96476.72;;;14.88;58.16
10992;BME280;5549;47.028;15.514;2023-04-20T06:52:35;96480.47;;;15.12;58.96
10992;BME280;5549;47.028;15.514;2023-04-20T06:55:04;96473.22;;;15.22;57.93
10992;BME280;5549;47.028;15.514;2023-04-20T06:57:33;96478.41;;;14.97;55.80
10992;BME280;5549;47.028;15.514;2023-04-20T07:00:03;96475.91;;;15.30;57.26
10992;BME280;5549;47.028;15.514;2023-04-20T07:02:43;96475.28;;;15.44;56.50
10992;BME280;5549;47.028;15.514;2023-04-20T07:05:14;96473.69;;;15.09;54.89
10992;BME280;5549;47.028;15.514;2023-04-20T07:07:42;96475.44;;;15.43;55.95
10992;BME280;5549;47.028;15.514;2023-04-20T07:10:12;96483.34;;;15.68;55.93
10992;BME280;5549;47.028;15.514;2023-04-20T07:12:43;96481.38;;;15.70;53.60
10992;BME280;5549;47.028;15.514;2023-04-20T07:15:10;96487.03;;;15.84;52.47
10992;BME280;5549;47.028;15.514;2023-04-20T07:17:38;96486.06;;;16.01;53.84
10992;BME280;5549;47.028;15.514;2023-04-20T07:20:08;96486.03;;;15.77;52.11
10992;BME280;5549;47.028;15.514;2023-04-20T07:22:38;96483.38;;;15.77;51.27
10992;BME280;5549;47.028;15.514;2023-04-20T07:25:09;96491.63;;;15.65;51.79
10992;BME280;5549;47.028;15.514;2023-04-20T07:27:39;96501.81;;;14.84;52.33
10992;BME280;5549;47.028;15.514;2023-04-20T07:30:10;96492.78;;;15.29;52.78
10992;BME280;5549;47.028;15.514;2023-04-20T07:32:39;96490.88;;;15.55;52.36
10992;BME280;5549;47.028;15.514;2023-04-20T07:35:09;96493.94;;;15.60;52.32
10992;BME280;5549;47.028;15.514;2023-04-20T07:37:39;96492.25;;;15.59;48.50
10992;BME280;5549;47.028;15.514;2023-04-20T07:40:09;96487.81;;;15.34;48.04
10992;BME280;5549;47.028;15.514;2023-04-20T07:42:39;96493.09;;;15.26;49.18
10992;BME280;5549;47.028;15.514;2023-04-20T07:45:09;96499.22;;;14.92;50.90
10992;BME280;5549;47.028;15.514;2023-04-20T07:47:37;96498.28;;;15.01;51.37
10992;BME280;5549;47.028;15.514;2023-04-20T07:50:07;96498.38;;;15.26;51.31
10992;BME280;5549;47.028;15.514;2023-04-20T07:52:38;96497.13;;;15.04;48.73
10992;BME280;5549;47.028;15.514;2023-04-20T07:55:09;96497.84;;;15.14;48.47
10992;BME280;5549;47.028;15.514;2023-04-20T07:57:37;96492.03;;;15.11;46.99
10992;BME280;5549;47.028;15.514;2023-04-20T08:00:06;96493.06;;;15.18;46.08
10992;BME280;5549;47.028;15.514;2023-04-20T08:02:35;96500.63;;;14.53;46.76
10992;BME280;5549;47.028;15.514;2023-04-20T08:05:07;96490.72;;;14.55;47.26
10992;BME280;5549;47.028;15.514;2023-04-20T08:07:38;96496.53;;;14.84;49.70
10992;BME280;5549;47.028;15.514;2023-04-20T08:10:07;96497.44;;;15.01;49.73
10992;BME280;5549;47.028;15.514;2023-04-20T08:12:35;96492.72;;;15.13;50.59
10992;BME280;5549;47.028;15.514;2023-04-20T08:15:06;96493.72;;;14.86;48.38
10992;BME280;5549;47.028;15.514;2023-04-20T08:17:34;96493.28;;;14.98;49.87
10992;BME280;5549;47.028;15.514;2023-04-20T08:20:08;96498.56;;;14.64;48.89
10992;BME280;5549;47.028;15.514;2023-04-20T08:22:37;96489.13;;;14.62;52.34
10992;BME280;5549;47.028;15.514;2023-04-20T08:25:05;96484.13;;;15.19;51.22
10992;BME280;5549;47.028;15.514;2023-04-20T08:27:32;96486.78;;;15.19;48.09
10992;BME280;5549;47.028;15.514;2023-04-20T08:30:02;96486.81;;;15.27;47.95
10992;BME280;5549;47.028;15.514;2023-04-20T08:32:33;96486.94;;;15.17;47.27
10992;BME280;5549;47.028;15.514;2023-04-20T08:35:03;96486.78;;;15.19;48.88
10992;BME280;5549;47.028;15.514;2023-04-20T08:37:33;96487.19;;;15.40;47.68
10992;BME280;5549;47.028;15.514;2023-04-20T08:40:00;96483.88;;;15.38;46.92
10992;BME280;5549;47.028;15.514;2023-04-20T08:42:29;96488.53;;;15.52;45.96
10992;BME280;5549;47.028;15.514;2023-04-20T08:44:57;96485.38;;;15.99;47.92
10992;BME280;5549;47.028;15.514;2023-04-20T08:47:27;96486.38;;;16.06;46.02
10992;BME280;5549;47.028;15.514;2023-04-20T08:49:59;96499.28;;;15.93;49.41
10992;BME280;5549;47.028;15.514;2023-04-20T08:52:28;96492.69;;;16.38;46.84
10992;BME280;5549;47.028;15.514;2023-04-20T08:54:59;96491.00;;;16.53;46.15
10992;BME280;5549;47.028;15.514;2023-04-20T08:57:27;96487.69;;;16.51;44.49
10992;BME280;5549;47.028;15.514;2023-04-20T08:59:55;96486.38;;;16.47;48.98
10992;BME280;5549;47.028;15.514;2023-04-20T09:02:23;96485.22;;;16.57;46.52
10992;BME280;5549;47.028;15.514;2023-04-20T09:05:04;96490.00;;;16.78;47.27
10992;BME280;5549;47.028;15.514;2023-04-20T09:07:32;96487.00;;;16.81;44.13
10992;BME280;5549;47.028;15.514;2023-04-20T09:10:01;96492.16;;;16.50;46.86
10992;BME280;5549;47.028;15.514;2023-04-20T09:12:40;96485.72;;;16.45;46.71
10992;BME280;5549;47.028;15.514;2023-04-20T09:15:10;96480.72;;;16.82;43.79
10992;BME280;5549;47.028;15.514;2023-04-20T09:17:39;96484.41;;;16.65;44.95
10992;BME280;5549;47.028;15.514;2023-04-20T09:20:10;96485.72;;;16.69;44.72
10992;BME280;5549;47.028;15.514;2023-04-20T09:22:40;96485.38;;;16.72;43.82
10992;BME280;5549;47.028;15.514;2023-04-20T09:25:16;96481.34;;;16.92;43.57
10992;BME280;5549;47.028;15.514;2023-04-20T09:27:55;96481.72;;;16.81;44.21
10992;BME280;5549;47.028;15.514;2023-04-20T09:30:36;96475.31;;;17.15;45.90
10992;BME280;5549;47.028;15.514;2023-04-20T09:33:06;96477.91;;;17.31;45.29
10992;BME280;5549;47.028;15.514;2023-04-20T09:35:36;96478.88;;;16.91;45.59
10992;BME280;5549;47.028;15.514;2023-04-20T09:38:06;96469.72;;;17.02;42.29
10992;BME280;5549;47.028;15.514;2023-04-20T09:40:35;96480.38;;;16.85;45.24
10992;BME280;5549;47.028;15.514;2023-04-20T09:43:08;96475.75;;;16.79;45.17
10992;BME280;5549;47.028;15.514;2023-04-20T09:45:40;96472.19;;;17.03;44.17
10992;BME280;5549;47.028;15.514;2023-04-20T09:48:08;96474.97;;;17.18;43.78
10992;BME280;5549;47.028;15.514;2023-04-20T09:50:37;96475.19;;;17.47;45.16
10992;BME280;5549;47.028;15.514;2023-04-20T09:53:05;96479.88;;;17.37;42.54
10992;BME280;5549;47.028;15.514;2023-04-20T09:55:34;96481.19;;;17.41;44.95
10992;BME280;5549;47.028;15.514;2023-04-20T09:58:05;96487.06;;;16.65;44.93
10992;BME280;5549;47.028;15.514;2023-04-20T10:00:32;96482.06;;;16.62;46.30
10992;BME280;5549;47.028;15.514;2023-04-20T10:03:00;96471.94;;;17.29;47.49
10992;BME280;5549;47.028;15.514;2023-04-20T10:05:37;96470.69;;;17.09;43.52
10992;BME280;5549;47.028;15.514;2023-04-20T10:08:06;96475.59;;;17.28;43.25
10992;BME280;5549;47.028;15.514;2023-04-20T10:10:45;96467.91;;;16.94;42.59
10992;BME280;5549;47.028;15.514;2023-04-20T10:13:14;96478.41;;;16.79;43.26
10992;BME280;5549;47.028;15.514;2023-04-20T10:15:44;96479.06;;;16.81;43.21
10992;BME280;5549;47.028;15.514;2023-04-20T10:18:17;96476.34;;;17.06;43.23
10992;BME280;5549;47.028;15.514;2023-04-20T10:20:47;96472.69;;;17.07;45.97
10992;BME280;5549;47.028;15.514;2023-04-20T10:23:17;96483.66;;;16.95;46.74
10992;BME280;5549;47.028;15.514;2023-04-20T10:25:58;96478.53;;;16.94;42.79
10992;BME280;5549;47.028;15.514;2023-04-20T10:28:38;96481.16;;;17.02;44.95
10992;BME280;5549;47.028;15.514;2023-04-20T10:31:07;96474.41;;;17.30;43.67
10992;BME280;5549;47.028;15.514;2023-04-20T10:33:54;96468.50;;;17.59;45.23
10992;BME280;5549;47.028;15.514;2023-04-20T10:36:26;96462.28;;;17.75;45.41
10992;BME280;5549;47.028;15.514;2023-04-20T10:38:54;96467.13;;;17.72;44.55
10992;BME280;5549;47.028;15.514;2023-04-20T10:41:23;96468.53;;;17.51;41.61
10992;BME280;5549;47.028;15.514;2023-04-20T10:43:53;96469.00;;;17.16;43.09
10992;BME280;5549;47.028;15.514;2023-04-20T10:46:23;96466.13;;;16.78;43.33
10992;BME280;5549;47.028;15.514;2023-04-20T10:48:55;96462.13;;;16.90;43.57
10992;BME280;5549;47.028;15.514;2023-04-20T10:51:23;96460.06;;;17.09;43.86
10992;BME280;5549;47.028;15.514;2023-04-20T10:54:01;96457.88;;;17.20;47.51
10992;BME280;5549;47.028;15.514;2023-04-20T10:56:42;96457.72;;;17.14;45.30
10992;BME280;5549;47.028;15.514;2023-04-20T10:59:12;96461.03;;;17.55;45.69
10992;BME280;5549;47.028;15.514;2023-04-20T11:01:43;96456.31;;;17.42;45.04
10992;BME280;5549;47.028;15.514;2023-04-20T11:04:12;96454.72;;;17.17;45.73
10992;BME280;5549;47.028;15.514;2023-04-20T11:06:42;96457.22;;;17.57;44.20
10992;BME280;5549;47.028;15.514;2023-04-20T11:09:19;96452.25;;;17.54;43.88
10992;BME280;5549;47.028;15.514;2023-04-20T11:12:02;96453.47;;;17.05;46.20
10992;BME280;5549;47.028;15.514;2023-04-20T11:14:32;96448.94;;;17.13;43.89
10992;BME280;5549;47.028;15.514;2023-04-20T11:17:00;96456.00;;;17.29;46.18
10992;BME280;5549;47.028;15.514;2023-04-20T11:19:30;96453.13;;;16.99;43.65
10992;BME280;5549;47.028;15.514;2023-04-20T11:22:03;96446.84;;;17.00;44.94
10992;BME280;5549;47.028;15.514;2023-04-20T11:24:33;96454.22;;;17.21;47.21
10992;BME280;5549;47.028;15.514;2023-04-20T11:27:04;96453.72;;;17.18;46.54
10992;BME280;5549;47.028;15.514;2023-04-20T11:29:34;96452.91;;;17.17;45.38
10992;BME280;5549;47.028;15.514;2023-04-20T11:32:04;96454.91;;;17.15;45.65
10992;BME280;5549;47.028;15.514;2023-04-20T11:34:34;96457.03;;;17.20;45.04
10992;BME280;5549;47.028;15.514;2023-04-20T11:37:03;96451.59;;;17.13;46.38
10992;BME280;5549;47.028;15.514;2023-04-20T11:39:32;96456.94;;;17.05;46.45
10992;BME280;5549;47.028;15.514;2023-04-20T11:41:59;96450.38;;;17.24;43.99
10992;BME280;5549;47.028;15.514;2023-04-20T11:44:28;96458.31;;;17.32;45.95
10992;BME280;5549;47.028;15.514;2023-04-20T11:46:56;96451.34;;;17.39;46.90
10992;BME280;5549;47.028;15.514;2023-04-20T11:49:26;96457.09;;;17.82;48.22
10992;BME280;5549;47.028;15.514;2023-04-20T11:51:54;96455.09;;;17.84;43.60
10992;BME280;5549;47.028;15.514;2023-04-20T11:54:22;96451.06;;;17.88;43.78
10992;BME280;5549;47.028;15.514;2023-04-20T11:56:52;96454.03;;;18.16;45.79
10992;BME280;5549;47.028;15.514;2023-04-20T11:59:20;96438.97;;;18.46;44.92
10992;BME280;5549;47.028;15.514;2023-04-20T12:01:49;96446.81;;;18.77;44.69
10992;BME280;5549;47.028;15.514;2023-04-20T12:04:17;96449.47;;;18.24;42.51
10992;BME280;5549;47.028;15.514;2023-04-20T12:06:47;96436.63;;;18.28;42.63
10992;BME280;5549;47.028;15.514;2023-04-20T12:09:17;96447.00;;;18.00;42.84
10992;BME280;5549;47.028;15.514;2023-04-20T12:11:44;96446.13;;;17.85;43.10
10992;BME280;5549;47.028;15.514;2023-04-20T12:14:14;96442.41;;;17.63;44.30
10992;BME280;5549;47.028;15.514;2023-04-20T12:16:42;96436.91;;;17.73;43.72
10992;BME280;5549;47.028;15.514;2023-04-20T12:19:13;96432.63;;;17.63;43.61
10992;BME280;5549;47.028;15.514;2023-04-20T12:21:41;96435.31;;;17.55;43.91
10992;BME280;5549;47.028;15.514;2023-04-20T12:24:11;96435.66;;;17.52;43.44
10992;BME280;5549;47.028;15.514;2023-04-20T12:26:40;96429.06;;;17.48;43.96
10992;BME280;5549;47.028;15.514;2023-04-20T12:29:10;96424.88;;;17.54;44.16
10992;BME280;5549;47.028;15.514;2023-04-20T12:31:38;96421.75;;;17.50;44.07
10992;BME280;5549;47.028;15.514;2023-04-20T12:34:05;96422.81;;;17.33;46.56
10992;BME280;5549;47.028;15.514;2023-04-20T12:36:37;96424.50;;;17.88;46.68
10992;BME280;5549;47.028;15.514;2023-04-20T12:39:07;96421.16;;;17.71;44.83
10992;BME280;5549;47.028;15.514;2023-04-20T12:41:37;96425.75;;;17.77;45.30
10992;BME280;5549;47.028;15.514;2023-04-20T12:44:07;96422.16;;;17.31;44.35
10992;BME280;5549;47.028;15.514;2023-04-20T12:46:38;96423.09;;;17.46;46.16
10992;BME280;5549;47.028;15.514;2023-04-20T12:49:08;96421.19;;;17.86;45.50
10992;BME280;5549;47.028;15.514;2023-04-20T12:51:37;96413.41;;;18.07;45.09
10992;BME280;5549;47.028;15.514;2023-04-20T12:54:04;96419.09;;;18.19;46.86
10992;BME280;5549;47.028;15.514;2023-04-20T12:56:32;96414.72;;;18.26;43.56
10992;BME280;5549;47.028;15.514;2023-04-20T12:59:02;96412.44;;;18.23;44.76
10992;BME280;5549;47.028;15.514;2023-04-20T13:01:34;96418.56;;;17.86;44.35
10992;BME280;5549;47.028;15.514;2023-04-20T13:04:02;96418.00;;;17.90;44.46
10992;BME280;5549;47.028;15.514;2023-04-20T13:06:32;96410.97;;;18.35;45.83
10992;BME280;5549;47.028;15.514;2023-04-20T13:09:03;96409.91;;;18.44;42.74
10992;BME280;5549;47.028;15.514;2023-04-20T13:11:33;96413.53;;;18.28;43.95
10992;BME280;5549;47.028;15.514;2023-04-20T13:14:03;96414.41;;;18.06;42.97
10992;BME280;5549;47.028;15.514;2023-04-20T13:16:33;96413.03;;;17.64;44.60
10992;BME280;5549;47.028;15.514;2023-04-20T13:19:01;96410.16;;;17.74;44.90